sensor_id;sensor_type;location;lat;lon;timestamp;P1;durP1;ratioP1;P2;durP2;ratioP2
30335;SDS011;17142;47.990;7.846;2022-12-11T08:08:57;20.65;;;11.10;;
30335;SDS011;17142;47.990;7.846;2022-12-11T08:11:27;27.23;;;12.32;;
30335;SDS011;17142;47.990;7.846;2022-12-11T08:13:58;21.95;;;12.73;;
30335;SDS011;17142;47.990;7.846;2022-12-11T08:16:24;29.60;;;14.43;;
30335;SDS011;17142;47.990;7.846;2022-12-11T08:18:55;21.30;;;10.68;;
30335;SDS011;17142;47.990;7.846;2022-12-11T08:21:24;21.75;;;12.32;;
30335;SDS011;17142;47.990;7.846;2022-12-11T08:23:51;23.90;;;15.25;;
30335;SDS011;17142;47.990;7.846;2022-12-11T08:26:21;28.55;;;14.98;;
30335;SDS011;17142;47.990;7.846;2022-12-11T08:28:49;29.30;;;14.10;;
30335;SDS011;17142;47.990;7.846;2022-12-11T08:31:17;27.77;;;14.87;;
30335;SDS011;17142;47.990;7.846;2022-12-11T08:33:43;24.65;;;13.38;;
30335;SDS011;17142;47.990;7.846;2022-12-11T08:36:13;19.58;;;11.38;;
30335;SDS011;17142;47.990;7.846;2022-12-11T08:38:40;29.92;;;14.80;;
30335;SDS011;17142;47.990;7.846;2022-12-11T08:41:07;29.98;;;14.68;;
30335;SDS011;17142;47.990;7.846;2022-12-11T08:43:34;18.88;;;11.93;;
30335;SDS011;17142;47.990;7.846;2022-12-11T08:46:00;25.17;;;14.33;;
30335;SDS011;17142;47.990;7.846;2022-12-11T08:48:28;29.75;;;15.65;;
30335;SDS011;17142;47.990;7.846;2022-12-11T08:50:54;27.63;;;15.73;;
30335;SDS011;17142;47.990;7.846;2022-12-11T08:53:22;25.27;;;13.18;;
30335;SDS011;17142;47.990;7.846;2022-12-11T08:55:48;21.80;;;14.13;;
30335;SDS011;17142;47.990;7.846;2022-12-11T08:58:13;22.67;;;12.47;;
30335;SDS011;17142;47.990;7.846;2022-12-11T09:00:39;20.73;;;12.77;;
30335;SDS011;17142;47.990;7.846;2022-12-11T09:03:05;20.57;;;12.63;;
30335;SDS011;17142;47.990;7.846;2022-12-11T09:05:30;19.60;;;11.40;;
30335;SDS011;17142;47.990;7.846;2022-12-11T09:07:56;21.10;;;11.83;;
30335;SDS011;17142;47.990;7.846;2022-12-11T09:10:24;23.47;;;11.80;;
30335;SDS011;17142;47.990;7.846;2022-12-11T09:12:51;20.65;;;10.82;;
30335;SDS011;17142;47.990;7.846;2022-12-11T09:15:17;17.50;;;11.40;;
30335;SDS011;17142;47.990;7.846;2022-12-11T09:17:44;23.23;;;15.93;;
30335;SDS011;17142;47.990;7.846;2022-12-11T09:20:15;20.25;;;10.90;;
30335;SDS011;17142;47.990;7.846;2022-12-11T09:22:40;21.43;;;12.17;;
30335;SDS011;17142;47.990;7.846;2022-12-11T09:25:07;17.47;;;11.20;;
30335;SDS011;17142;47.990;7.846;2022-12-11T09:27:33;17.70;;;10.70;;
30335;SDS011;17142;47.990;7.846;2022-12-11T09:30:01;22.17;;;11.23;;
30335;SDS011;17142;47.990;7.846;2022-12-11T09:32:30;18.60;;;11.13;;
30335;SDS011;17142;47.990;7.846;2022-12-11T09:34:56;20.30;;;12.20;;
30335;SDS011;17142;47.990;7.846;2022-12-11T09:37:23;16.75;;;9.40;;
30335;SDS011;17142;47.990;7.846;2022-12-11T09:39:49;18.03;;;8.97;;
30335;SDS011;17142;47.990;7.846;2022-12-11T09:42:20;25.17;;;13.35;;
30335;SDS011;17142;47.990;7.846;2022-12-11T09:45:14;17.50;;;11.27;;
30335;SDS011;17142;47.990;7.846;2022-12-11T09:47:43;20.13;;;12.68;;
30335;SDS011;17142;47.990;7.846;2022-12-11T09:50:24;22.17;;;11.73;;
30335;SDS011;17142;47.990;7.846;2022-12-11T10:01:14;18.38;;;11.60;;
30335;SDS011;17142;47.990;7.846;2022-12-11T10:17:30;16.65;;;10.10;;
30335;SDS011;17142;47.990;7.846;2022-12-11T10:20:00;16.92;;;9.50;;
30335;SDS011;17142;47.990;7.846;2022-12-11T10:22:46;13.95;;;8.55;;
30335;SDS011;17142;47.990;7.846;2022-12-11T10:25:29;15.00;;;8.95;;
30335;SDS011;17142;47.990;7.846;2022-12-11T10:27:57;18.48;;;8.35;;
30335;SDS011;17142;47.990;7.846;2022-12-11T10:30:34;19.08;;;10.82;;
30335;SDS011;17142;47.990;7.846;2022-12-11T10:40:51;18.98;;;11.57;;
30335;SDS011;17142;47.990;7.846;2022-12-11T10:43:35;19.38;;;9.70;;
30335;SDS011;17142;47.990;7.846;2022-12-11T10:46:01;19.27;;;10.85;;
30335;SDS011;17142;47.990;7.846;2022-12-11T10:48:27;21.90;;;12.48;;
30335;SDS011;17142;47.990;7.846;2022-12-11T10:50:56;27.77;;;15.50;;
30335;SDS011;17142;47.990;7.846;2022-12-11T10:53:27;33.28;;;16.15;;
30335;SDS011;17142;47.990;7.846;2022-12-11T10:55:54;29.65;;;15.13;;
30335;SDS011;17142;47.990;7.846;2022-12-11T10:58:24;29.10;;;14.95;;
30335;SDS011;17142;47.990;7.846;2022-12-11T11:03:25;24.58;;;13.50;;
30335;SDS011;17142;47.990;7.846;2022-12-11T11:08:40;33.90;;;14.30;;
30335;SDS011;17142;47.990;7.846;2022-12-11T11:11:35;28.02;;;13.70;;
30335;SDS011;17142;47.990;7.846;2022-12-11T11:14:18;30.42;;;16.08;;
30335;SDS011;17142;47.990;7.846;2022-12-11T11:16:47;25.67;;;14.27;;
30335;SDS011;17142;47.990;7.846;2022-12-11T11:21:49;29.33;;;13.80;;
30335;SDS011;17142;47.990;7.846;2022-12-11T11:24:43;24.13;;;13.45;;
30335;SDS011;17142;47.990;7.846;2022-12-11T11:27:13;24.23;;;13.95;;
30335;SDS011;17142;47.990;7.846;2022-12-11T11:30:34;24.05;;;15.23;;
30335;SDS011;17142;47.990;7.846;2022-12-11T11:32:42;22.98;;;13.40;;
30335;SDS011;17142;47.990;7.846;2022-12-11T11:37:37;25.07;;;14.70;;
30335;SDS011;17142;47.990;7.846;2022-12-11T11:40:12;26.20;;;13.57;;
30335;SDS011;17142;47.990;7.846;2022-12-11T11:43:18;24.93;;;14.40;;
30335;SDS011;17142;47.990;7.846;2022-12-11T11:45:58;19.03;;;12.60;;
30335;SDS011;17142;47.990;7.846;2022-12-11T11:53:56;21.80;;;12.20;;
30335;SDS011;17142;47.990;7.846;2022-12-11T11:56:27;26.07;;;15.13;;
30335;SDS011;17142;47.990;7.846;2022-12-11T12:01:46;22.73;;;13.00;;
30335;SDS011;17142;47.990;7.846;2022-12-11T12:04:11;26.20;;;15.13;;
30335;SDS011;17142;47.990;7.846;2022-12-11T12:14:35;27.43;;;15.17;;
30335;SDS011;17142;47.990;7.846;2022-12-11T12:20:51;22.57;;;13.63;;
30335;SDS011;17142;47.990;7.846;2022-12-11T12:26:00;22.73;;;12.47;;
30335;SDS011;17142;47.990;7.846;2022-12-11T12:38:57;26.50;;;14.50;;
30335;SDS011;17142;47.990;7.846;2022-12-11T12:44:19;23.10;;;12.47;;
30335;SDS011;17142;47.990;7.846;2022-12-11T12:49:44;22.00;;;12.40;;
30335;SDS011;17142;47.990;7.846;2022-12-11T12:52:14;18.70;;;11.07;;
30335;SDS011;17142;47.990;7.846;2022-12-11T12:54:47;24.38;;;14.40;;
30335;SDS011;17142;47.990;7.846;2022-12-11T12:57:34;21.97;;;12.93;;
30335;SDS011;17142;47.990;7.846;2022-12-11T13:00:03;18.07;;;12.80;;
30335;SDS011;17142;47.990;7.846;2022-12-11T13:02:30;18.47;;;11.33;;
30335;SDS011;17142;47.990;7.846;2022-12-11T13:05:06;20.77;;;13.37;;
30335;SDS011;17142;47.990;7.846;2022-12-11T13:07:56;21.55;;;12.85;;
30335;SDS011;17142;47.990;7.846;2022-12-11T13:13:01;25.37;;;13.77;;
30335;SDS011;17142;47.990;7.846;2022-12-11T13:15:47;21.35;;;15.27;;
30335;SDS011;17142;47.990;7.846;2022-12-11T13:21:26;28.40;;;16.20;;
30335;SDS011;17142;47.990;7.846;2022-12-11T13:24:14;22.40;;;14.23;;
30335;SDS011;17142;47.990;7.846;2022-12-11T13:26:49;32.92;;;16.85;;
30335;SDS011;17142;47.990;7.846;2022-12-11T13:34:35;29.02;;;16.42;;
30335;SDS011;17142;47.990;7.846;2022-12-11T13:37:04;28.43;;;16.27;;
30335;SDS011;17142;47.990;7.846;2022-12-11T13:39:34;28.60;;;15.73;;
30335;SDS011;17142;47.990;7.846;2022-12-11T13:42:07;33.45;;;16.90;;
30335;SDS011;17142;47.990;7.846;2022-12-11T13:44:56;23.23;;;12.90;;
30335;SDS011;17142;47.990;7.846;2022-12-11T13:47:22;26.60;;;14.03;;
30335;SDS011;17142;47.990;7.846;2022-12-11T13:49:51;29.20;;;15.48;;
30335;SDS011;17142;47.990;7.846;2022-12-11T13:52:20;24.20;;;14.55;;
30335;SDS011;17142;47.990;7.846;2022-12-11T13:54:53;25.98;;;14.02;;
30335;SDS011;17142;47.990;7.846;2022-12-11T13:57:23;24.63;;;13.43;;
30335;SDS011;17142;47.990;7.846;2022-12-11T13:59:53;25.52;;;14.82;;
30335;SDS011;17142;47.990;7.846;2022-12-11T14:02:21;30.10;;;15.80;;
30335;SDS011;17142;47.990;7.846;2022-12-11T14:04:55;25.55;;;13.10;;
30335;SDS011;17142;47.990;7.846;2022-12-11T14:07:42;24.05;;;12.05;;
30335;SDS011;17142;47.990;7.846;2022-12-11T14:12:42;24.27;;;14.55;;
30335;SDS011;17142;47.990;7.846;2022-12-11T14:15:25;25.67;;;12.80;;
30335;SDS011;17142;47.990;7.846;2022-12-11T14:17:54;21.05;;;12.15;;
30335;SDS011;17142;47.990;7.846;2022-12-11T14:20:23;24.00;;;13.10;;
30335;SDS011;17142;47.990;7.846;2022-12-11T14:25:41;19.20;;;11.85;;
30335;SDS011;17142;47.990;7.846;2022-12-11T14:28:15;25.35;;;13.82;;
30335;SDS011;17142;47.990;7.846;2022-12-11T14:30:46;21.58;;;12.23;;
30335;SDS011;17142;47.990;7.846;2022-12-11T14:33:15;23.65;;;13.85;;
30335;SDS011;17142;47.990;7.846;2022-12-11T14:35:42;22.90;;;12.75;;
30335;SDS011;17142;47.990;7.846;2022-12-11T14:38:17;22.63;;;13.10;;
30335;SDS011;17142;47.990;7.846;2022-12-11T14:40:45;20.63;;;12.63;;
30335;SDS011;17142;47.990;7.846;2022-12-11T14:43:15;24.63;;;14.10;;
30335;SDS011;17142;47.990;7.846;2022-12-11T14:45:57;31.05;;;13.40;;
30335;SDS011;17142;47.990;7.846;2022-12-11T14:48:34;24.27;;;13.52;;
30335;SDS011;17142;47.990;7.846;2022-12-11T14:51:06;21.13;;;13.00;;
30335;SDS011;17142;47.990;7.846;2022-12-11T14:53:39;24.15;;;13.15;;
30335;SDS011;17142;47.990;7.846;2022-12-11T14:56:12;23.13;;;12.32;;
30335;SDS011;17142;47.990;7.846;2022-12-11T14:58:42;21.58;;;11.52;;
30335;SDS011;17142;47.990;7.846;2022-12-11T15:01:27;22.85;;;12.35;;
30335;SDS011;17142;47.990;7.846;2022-12-11T15:04:05;19.02;;;12.15;;
30335;SDS011;17142;47.990;7.846;2022-12-11T15:06:44;21.58;;;13.20;;
30335;SDS011;17142;47.990;7.846;2022-12-11T15:09:18;16.25;;;10.30;;
30335;SDS011;17142;47.990;7.846;2022-12-11T15:11:45;22.50;;;13.00;;
30335;SDS011;17142;47.990;7.846;2022-12-11T15:14:12;32.25;;;15.23;;
30335;SDS011;17142;47.990;7.846;2022-12-11T15:16:40;24.58;;;13.45;;
30335;SDS011;17142;47.990;7.846;2022-12-11T15:19:06;24.20;;;14.15;;
30335;SDS011;17142;47.990;7.846;2022-12-11T15:21:52;28.08;;;14.40;;
30335;SDS011;17142;47.990;7.846;2022-12-11T15:24:24;30.33;;;17.00;;
30335;SDS011;17142;47.990;7.846;2022-12-11T15:26:58;35.80;;;17.00;;
30335;SDS011;17142;47.990;7.846;2022-12-11T15:29:34;28.15;;;15.50;;
30335;SDS011;17142;47.990;7.846;2022-12-11T15:34:46;29.92;;;16.73;;
30335;SDS011;17142;47.990;7.846;2022-12-11T15:37:18;32.28;;;17.33;;
30335;SDS011;17142;47.990;7.846;2022-12-11T15:39:50;36.13;;;17.00;;
30335;SDS011;17142;47.990;7.846;2022-12-11T15:42:28;33.03;;;18.20;;
30335;SDS011;17142;47.990;7.846;2022-12-11T15:44:55;33.80;;;16.77;;
30335;SDS011;17142;47.990;7.846;2022-12-11T15:47:23;31.77;;;16.95;;
30335;SDS011;17142;47.990;7.846;2022-12-11T15:49:57;32.97;;;18.60;;
30335;SDS011;17142;47.990;7.846;2022-12-11T15:52:31;29.55;;;17.00;;
30335;SDS011;17142;47.990;7.846;2022-12-11T15:55:01;31.08;;;17.35;;
30335;SDS011;17142;47.990;7.846;2022-12-11T15:57:27;37.08;;;19.15;;
30335;SDS011;17142;47.990;7.846;2022-12-11T15:59:53;35.37;;;19.03;;
30335;SDS011;17142;47.990;7.846;2022-12-11T16:02:19;31.08;;;17.38;;
30335;SDS011;17142;47.990;7.846;2022-12-11T16:04:45;36.33;;;18.67;;
30335;SDS011;17142;47.990;7.846;2022-12-11T16:07:20;38.27;;;18.13;;
30335;SDS011;17142;47.990;7.846;2022-12-11T16:09:47;29.67;;;17.63;;
30335;SDS011;17142;47.990;7.846;2022-12-11T16:12:16;31.70;;;19.83;;
30335;SDS011;17142;47.990;7.846;2022-12-11T16:14:43;37.45;;;17.42;;
30335;SDS011;17142;47.990;7.846;2022-12-11T16:17:10;29.75;;;18.75;;
30335;SDS011;17142;47.990;7.846;2022-12-11T16:19:37;27.73;;;18.23;;
30335;SDS011;17142;47.990;7.846;2022-12-11T16:22:04;34.25;;;18.77;;
30335;SDS011;17142;47.990;7.846;2022-12-11T16:24:32;35.00;;;18.85;;
30335;SDS011;17142;47.990;7.846;2022-12-11T16:26:59;33.65;;;19.40;;
30335;SDS011;17142;47.990;7.846;2022-12-11T16:29:32;32.13;;;16.30;;
30335;SDS011;17142;47.990;7.846;2022-12-11T16:31:58;34.05;;;17.92;;
30335;SDS011;17142;47.990;7.846;2022-12-11T16:34:25;33.97;;;17.47;;
30335;SDS011;17142;47.990;7.846;2022-12-11T16:36:51;29.35;;;16.45;;
30335;SDS011;17142;47.990;7.846;2022-12-11T16:39:18;27.58;;;15.73;;
30335;SDS011;17142;47.990;7.846;2022-12-11T16:41:47;30.48;;;17.85;;
30335;SDS011;17142;47.990;7.846;2022-12-11T16:44:15;28.97;;;17.50;;
30335;SDS011;17142;47.990;7.846;2022-12-11T16:46:46;35.65;;;17.58;;
30335;SDS011;17142;47.990;7.846;2022-12-11T16:49:12;36.70;;;18.93;;
30335;SDS011;17142;47.990;7.846;2022-12-11T16:51:38;31.45;;;18.67;;
30335;SDS011;17142;47.990;7.846;2022-12-11T16:54:04;40.60;;;19.08;;
30335;SDS011;17142;47.990;7.846;2022-12-11T16:56:30;37.47;;;20.73;;
30335;SDS011;17142;47.990;7.846;2022-12-11T16:59:01;36.97;;;17.70;;
30335;SDS011;17142;47.990;7.846;2022-12-11T17:01:28;31.52;;;17.10;;
30335;SDS011;17142;47.990;7.846;2022-12-11T17:03:57;33.20;;;17.27;;
30335;SDS011;17142;47.990;7.846;2022-12-11T17:06:23;28.57;;;17.13;;
30335;SDS011;17142;47.990;7.846;2022-12-11T17:08:49;27.50;;;15.80;;
30335;SDS011;17142;47.990;7.846;2022-12-11T17:11:16;33.92;;;16.33;;
30335;SDS011;17142;47.990;7.846;2022-12-11T17:13:46;33.92;;;18.15;;
30335;SDS011;17142;47.990;7.846;2022-12-11T17:16:16;35.30;;;16.85;;
30335;SDS011;17142;47.990;7.846;2022-12-11T17:18:48;30.33;;;16.90;;
30335;SDS011;17142;47.990;7.846;2022-12-11T17:21:14;45.88;;;22.40;;
30335;SDS011;17142;47.990;7.846;2022-12-11T17:23:43;110.70;;;54.05;;
30335;SDS011;17142;47.990;7.846;2022-12-11T17:26:10;53.75;;;31.17;;
30335;SDS011;17142;47.990;7.846;2022-12-11T17:28:36;36.00;;;21.70;;
30335;SDS011;17142;47.990;7.846;2022-12-11T17:31:03;65.33;;;35.77;;
30335;SDS011;17142;47.990;7.846;2022-12-11T17:33:33;44.92;;;23.10;;
30335;SDS011;17142;47.990;7.846;2022-12-11T17:36:02;33.47;;;21.73;;
30335;SDS011;17142;47.990;7.846;2022-12-11T17:38:29;30.85;;;19.95;;
30335;SDS011;17142;47.990;7.846;2022-12-11T17:40:55;30.08;;;18.33;;
30335;SDS011;17142;47.990;7.846;2022-12-11T17:43:21;24.70;;;17.53;;
30335;SDS011;17142;47.990;7.846;2022-12-11T17:45:48;32.57;;;20.10;;
30335;SDS011;17142;47.990;7.846;2022-12-11T17:48:16;32.55;;;17.60;;
30335;SDS011;17142;47.990;7.846;2022-12-11T17:50:44;34.13;;;20.70;;
30335;SDS011;17142;47.990;7.846;2022-12-11T17:53:11;32.05;;;17.45;;
30335;SDS011;17142;47.990;7.846;2022-12-11T17:55:39;53.15;;;33.63;;
30335;SDS011;17142;47.990;7.846;2022-12-11T17:58:12;37.88;;;18.98;;
30335;SDS011;17142;47.990;7.846;2022-12-11T18:00:43;23.27;;;13.68;;
30335;SDS011;17142;47.990;7.846;2022-12-11T18:03:12;21.40;;;14.10;;
30335;SDS011;17142;47.990;7.846;2022-12-11T18:05:41;19.63;;;12.05;;
30335;SDS011;17142;47.990;7.846;2022-12-11T18:08:13;30.10;;;14.90;;
30335;SDS011;17142;47.990;7.846;2022-12-11T18:10:43;22.05;;;12.05;;
30335;SDS011;17142;47.990;7.846;2022-12-11T18:13:09;18.23;;;12.30;;
30335;SDS011;17142;47.990;7.846;2022-12-11T18:15:35;23.35;;;13.65;;
30335;SDS011;17142;47.990;7.846;2022-12-11T18:18:04;21.60;;;14.43;;
30335;SDS011;17142;47.990;7.846;2022-12-11T18:20:31;19.15;;;12.07;;
30335;SDS011;17142;47.990;7.846;2022-12-11T18:23:01;23.92;;;14.10;;
30335;SDS011;17142;47.990;7.846;2022-12-11T18:25:27;24.00;;;12.93;;
30335;SDS011;17142;47.990;7.846;2022-12-11T18:27:53;16.63;;;12.73;;
30335;SDS011;17142;47.990;7.846;2022-12-11T18:30:22;20.98;;;12.90;;
30335;SDS011;17142;47.990;7.846;2022-12-11T18:32:48;26.73;;;15.48;;
30335;SDS011;17142;47.990;7.846;2022-12-11T18:35:14;23.98;;;15.48;;
30335;SDS011;17142;47.990;7.846;2022-12-11T18:37:40;24.70;;;15.77;;
30335;SDS011;17142;47.990;7.846;2022-12-11T18:40:07;28.97;;;16.87;;
30335;SDS011;17142;47.990;7.846;2022-12-11T18:42:33;20.70;;;12.30;;
30335;SDS011;17142;47.990;7.846;2022-12-11T18:45:02;21.00;;;14.80;;
30335;SDS011;17142;47.990;7.846;2022-12-11T18:47:28;20.77;;;14.35;;
30335;SDS011;17142;47.990;7.846;2022-12-11T18:49:54;30.17;;;15.83;;
30335;SDS011;17142;47.990;7.846;2022-12-11T18:52:20;19.30;;;11.77;;
30335;SDS011;17142;47.990;7.846;2022-12-11T18:54:46;20.63;;;12.23;;
30335;SDS011;17142;47.990;7.846;2022-12-11T18:57:16;19.48;;;13.60;;
30335;SDS011;17142;47.990;7.846;2022-12-11T18:59:41;28.60;;;12.77;;
30335;SDS011;17142;47.990;7.846;2022-12-11T19:02:08;23.00;;;14.50;;
30335;SDS011;17142;47.990;7.846;2022-12-11T19:04:34;20.90;;;11.75;;
30335;SDS011;17142;47.990;7.846;2022-12-11T19:07:01;24.45;;;12.48;;
30335;SDS011;17142;47.990;7.846;2022-12-11T19:09:29;29.42;;;17.50;;
30335;SDS011;17142;47.990;7.846;2022-12-11T19:11:55;24.50;;;15.13;;
30335;SDS011;17142;47.990;7.846;2022-12-11T19:14:20;24.77;;;13.53;;
30335;SDS011;17142;47.990;7.846;2022-12-11T19:16:46;23.07;;;13.97;;
30335;SDS011;17142;47.990;7.846;2022-12-11T19:19:13;23.57;;;13.60;;
30335;SDS011;17142;47.990;7.846;2022-12-11T19:21:41;18.08;;;11.82;;
30335;SDS011;17142;47.990;7.846;2022-12-11T19:24:07;22.23;;;11.17;;
30335;SDS011;17142;47.990;7.846;2022-12-11T19:26:36;24.42;;;13.98;;
30335;SDS011;17142;47.990;7.846;2022-12-11T19:29:02;19.27;;;14.48;;
30335;SDS011;17142;47.990;7.846;2022-12-11T19:31:30;20.58;;;14.05;;
30335;SDS011;17142;47.990;7.846;2022-12-11T19:33:57;21.08;;;13.40;;
30335;SDS011;17142;47.990;7.846;2022-12-11T19:36:24;26.92;;;13.77;;
30335;SDS011;17142;47.990;7.846;2022-12-11T19:38:53;14.63;;;11.80;;
30335;SDS011;17142;47.990;7.846;2022-12-11T19:41:23;25.05;;;14.40;;
30335;SDS011;17142;47.990;7.846;2022-12-11T19:43:51;20.05;;;12.60;;
30335;SDS011;17142;47.990;7.846;2022-12-11T19:46:18;24.00;;;13.63;;
30335;SDS011;17142;47.990;7.846;2022-12-11T19:48:46;21.50;;;14.20;;
30335;SDS011;17142;47.990;7.846;2022-12-11T19:51:16;22.55;;;10.88;;
30335;SDS011;17142;47.990;7.846;2022-12-11T19:53:52;18.48;;;12.05;;
30335;SDS011;17142;47.990;7.846;2022-12-11T19:56:21;18.98;;;9.95;;
30335;SDS011;17142;47.990;7.846;2022-12-11T19:58:47;16.87;;;10.60;;
30335;SDS011;17142;47.990;7.846;2022-12-11T20:01:21;16.58;;;11.20;;
30335;SDS011;17142;47.990;7.846;2022-12-11T20:04:03;19.10;;;12.00;;
30335;SDS011;17142;47.990;7.846;2022-12-11T20:06:34;12.75;;;8.98;;
30335;SDS011;17142;47.990;7.846;2022-12-11T20:09:02;12.75;;;9.70;;
30335;SDS011;17142;47.990;7.846;2022-12-11T20:11:30;19.58;;;10.23;;
30335;SDS011;17142;47.990;7.846;2022-12-11T20:13:56;14.10;;;9.38;;
30335;SDS011;17142;47.990;7.846;2022-12-11T20:16:22;13.70;;;9.23;;
30335;SDS011;17142;47.990;7.846;2022-12-11T20:18:48;13.57;;;9.57;;
30335;SDS011;17142;47.990;7.846;2022-12-11T20:21:15;12.30;;;8.47;;
30335;SDS011;17142;47.990;7.846;2022-12-11T20:23:44;9.57;;;7.07;;
30335;SDS011;17142;47.990;7.846;2022-12-11T20:26:13;17.30;;;11.75;;
30335;SDS011;17142;47.990;7.846;2022-12-11T20:28:41;12.75;;;9.73;;
30335;SDS011;17142;47.990;7.846;2022-12-11T20:31:13;16.50;;;9.10;;
30335;SDS011;17142;47.990;7.846;2022-12-11T20:33:42;14.65;;;10.30;;
30335;SDS011;17142;47.990;7.846;2022-12-11T20:36:11;18.83;;;10.70;;
30335;SDS011;17142;47.990;7.846;2022-12-11T20:38:39;13.68;;;9.45;;
30335;SDS011;17142;47.990;7.846;2022-12-11T20:41:10;13.00;;;10.55;;
30335;SDS011;17142;47.990;7.846;2022-12-11T20:43:37;15.88;;;8.73;;
30335;SDS011;17142;47.990;7.846;2022-12-11T20:46:04;13.05;;;8.82;;
30335;SDS011;17142;47.990;7.846;2022-12-11T20:48:34;13.20;;;8.88;;
30335;SDS011;17142;47.990;7.846;2022-12-11T20:51:03;12.55;;;7.45;;
30335;SDS011;17142;47.990;7.846;2022-12-11T20:53:30;10.70;;;7.95;;
30335;SDS011;17142;47.990;7.846;2022-12-11T20:55:56;13.17;;;8.57;;
30335;SDS011;17142;47.990;7.846;2022-12-11T20:58:22;11.77;;;7.63;;
30335;SDS011;17142;47.990;7.846;2022-12-11T21:00:50;13.48;;;8.93;;
30335;SDS011;17142;47.990;7.846;2022-12-11T21:03:16;12.03;;;8.07;;
30335;SDS011;17142;47.990;7.846;2022-12-11T21:05:42;9.57;;;6.93;;
30335;SDS011;17142;47.990;7.846;2022-12-11T21:08:09;9.93;;;7.60;;
30335;SDS011;17142;47.990;7.846;2022-12-11T21:10:35;12.80;;;7.65;;
30335;SDS011;17142;47.990;7.846;2022-12-11T21:13:05;17.88;;;9.35;;
30335;SDS011;17142;47.990;7.846;2022-12-11T21:15:30;13.83;;;9.40;;
30335;SDS011;17142;47.990;7.846;2022-12-11T21:17:58;18.27;;;8.27;;
30335;SDS011;17142;47.990;7.846;2022-12-11T21:20:24;15.50;;;8.90;;
30335;SDS011;17142;47.990;7.846;2022-12-11T21:22:53;18.83;;;9.68;;
30335;SDS011;17142;47.990;7.846;2022-12-11T21:25:21;10.30;;;8.05;;
30335;SDS011;17142;47.990;7.846;2022-12-11T21:27:49;13.75;;;9.70;;
30335;SDS011;17142;47.990;7.846;2022-12-11T21:30:15;11.48;;;8.27;;
30335;SDS011;17142;47.990;7.846;2022-12-11T21:32:41;13.57;;;9.20;;
30335;SDS011;17142;47.990;7.846;2022-12-11T21:35:07;16.93;;;9.87;;
30335;SDS011;17142;47.990;7.846;2022-12-11T21:37:33;14.18;;;9.27;;
30335;SDS011;17142;47.990;7.846;2022-12-11T21:39:58;15.17;;;8.90;;
30335;SDS011;17142;47.990;7.846;2022-12-11T21:42:24;13.07;;;9.20;;
30335;SDS011;17142;47.990;7.846;2022-12-11T21:44:52;13.43;;;7.20;;
30335;SDS011;17142;47.990;7.846;2022-12-11T21:47:20;12.80;;;8.50;;
30335;SDS011;17142;47.990;7.846;2022-12-11T21:49:46;14.03;;;9.30;;
30335;SDS011;17142;47.990;7.846;2022-12-11T21:52:12;23.40;;;10.87;;
30335;SDS011;17142;47.990;7.846;2022-12-11T21:54:38;18.55;;;11.70;;
30335;SDS011;17142;47.990;7.846;2022-12-11T21:57:04;18.08;;;9.40;;
30335;SDS011;17142;47.990;7.846;2022-12-11T21:59:30;11.30;;;7.63;;
